Time;durP1;ratioP1;P1;durP2;ratioP2;P2;SDS_P1;SDS_P2;PMS_P1;PMS_P2;Temp;Humidity;BMP_temperature;BMP_pressure;BME280_temperature;BME280_humidity;BME280_pressure;Samples;Min_cycle;Max_cycle;Signal;HPM_P1;HPM_P2
2021/07/03 00:00:28;;;;;;;16.50;10.70;;;;;;;14.07;100.00;101642.75;5066676;28;20115;-77
2021/07/03 00:02:54;;;;;;;17.85;11.50;;;;;;;14.13;100.00;101638.69;5035505;28;20193;-80
2021/07/03 00:05:19;;;;;;;18.52;11.55;;;;;;;14.11;100.00;101632.72;5051842;28;20032;-78
2021/07/03 00:07:45;;;;;;;16.00;11.38;;;;;;;14.12;100.00;101635.22;5033418;28;20147;-78
2021/07/03 00:10:11;;;;;;;19.73;11.50;;;;;;;14.08;100.00;101630.41;5037060;28;20024;-80
2021/07/03 00:12:37;;;;;;;16.92;11.43;;;;;;;14.05;100.00;101636.78;5041114;28;20032;-77
2021/07/03 00:15:06;;;;;;;18.67;12.43;;;;;;;14.05;100.00;101635.94;5051103;28;20060;-78
2021/07/03 00:17:32;;;;;;;23.13;12.90;;;;;;;13.84;100.00;101615.94;5070078;28;20039;-80
2021/07/03 00:19:57;;;;;;;18.70;12.50;;;;;;;13.94;100.00;101637.00;5040131;28;20037;-78
2021/07/03 00:22:23;;;;;;;27.33;14.38;;;;;;;13.98;100.00;101633.09;5050327;28;20028;-78
2021/07/03 00:24:49;;;;;;;21.58;12.63;;;;;;;13.97;100.00;101621.69;5050834;28;20047;-77
2021/07/03 00:27:15;;;;;;;18.58;12.82;;;;;;;14.05;100.00;101634.13;5037902;28;20575;-79
2021/07/03 00:29:41;;;;;;;21.52;11.88;;;;;;;13.92;100.00;101631.00;5048972;28;20039;-79
2021/07/03 00:32:06;;;;;;;16.20;11.55;;;;;;;13.92;100.00;101641.56;5033703;28;20033;-78
2021/07/03 00:34:32;;;;;;;20.88;12.07;;;;;;;13.88;100.00;101630.50;5071180;28;20048;-80
2021/07/03 00:36:58;;;;;;;20.50;11.85;;;;;;;13.91;100.00;101626.72;5069622;28;20050;-79
2021/07/03 00:39:25;;;;;;;21.20;12.73;;;;;;;13.90;100.00;101631.19;5047876;28;20087;-81
2021/07/03 00:41:51;;;;;;;19.63;12.45;;;;;;;13.98;100.00;101630.44;5034957;28;20032;-77
2021/07/03 00:44:31;;;;;;;18.30;12.82;;;;;;;13.98;100.00;101628.63;5051177;28;20149;-79
2021/07/03 00:47:00;;;;;;;16.27;12.05;;;;;;;13.84;100.00;101621.19;5044698;28;20115;-79
2021/07/03 00:49:28;;;;;;;18.38;13.10;;;;;;;13.89;100.00;101632.16;5085398;28;20051;-78
2021/07/03 00:51:54;;;;;;;18.33;11.63;;;;;;;13.80;100.00;101628.56;5041255;28;20459;-79
2021/07/03 00:54:21;;;;;;;21.80;13.18;;;;;;;13.75;100.00;101628.19;5035423;28;20062;-80
2021/07/03 00:57:01;;;;;;;20.85;11.98;;;;;;;13.70;100.00;101625.16;5035422;28;20506;-79
2021/07/03 00:59:38;;;;;;;16.73;12.27;;;;;;;13.70;100.00;101627.78;5051845;28;20060;-78
2021/07/03 01:02:09;;;;;;;18.70;12.70;;;;;;;13.74;100.00;101633.63;5064905;28;20032;-78
2021/07/03 01:04:35;;;;;;;21.30;13.60;;;;;;;13.69;100.00;101633.22;5054887;28;20043;-80
2021/07/03 01:07:03;;;;;;;17.20;12.98;;;;;;;13.76;100.00;101639.56;5052633;28;20060;-77
2021/07/03 01:09:29;;;;;;;20.13;13.80;;;;;;;13.75;100.00;101638.75;5044679;28;20036;-78
2021/07/03 01:11:55;;;;;;;21.10;13.52;;;;;;;13.66;100.00;101634.34;5057095;28;20097;-78
2021/07/03 01:14:22;;;;;;;21.65;13.73;;;;;;;13.69;100.00;101635.84;5072971;28;20036;-78
2021/07/03 01:16:48;;;;;;;18.02;13.35;;;;;;;13.63;100.00;101632.81;5052085;28;20028;-78
2021/07/03 01:19:16;;;;;;;18.25;13.20;;;;;;;13.57;100.00;101633.41;5037016;28;20063;-78
2021/07/03 01:21:52;;;;;;;21.42;13.48;;;;;;;13.58;100.00;101635.06;5067374;28;20468;-78
2021/07/03 01:24:19;;;;;;;23.48;13.15;;;;;;;13.53;100.00;101649.66;5055632;28;20034;-78
2021/07/03 01:26:53;;;;;;;20.02;12.50;;;;;;;13.50;100.00;101642.84;5039512;28;20037;-78
2021/07/03 01:29:21;;;;;;;17.88;11.63;;;;;;;13.47;100.00;101648.41;5058796;28;20052;-78
2021/07/03 01:31:49;;;;;;;21.10;13.60;;;;;;;13.43;100.00;101647.06;5057242;28;20075;-78
2021/07/03 01:34:17;;;;;;;24.75;13.07;;;;;;;13.36;100.00;101651.22;5056744;28;20120;-78
2021/07/03 01:36:44;;;;;;;20.48;13.45;;;;;;;13.25;100.00;101642.47;5070432;28;20028;-77
2021/07/03 01:39:10;;;;;;;22.42;12.93;;;;;;;13.30;100.00;101646.47;5048366;28;20115;-77
2021/07/03 01:41:36;;;;;;;21.63;13.20;;;;;;;13.27;100.00;101631.78;5035025;28;20557;-78
2021/07/03 01:44:03;;;;;;;20.30;14.05;;;;;;;13.28;100.00;101640.50;5040838;28;20029;-79
2021/07/03 01:46:29;;;;;;;20.08;13.20;;;;;;;13.21;100.00;101641.09;5068045;28;20032;-78
2021/07/03 01:49:01;;;;;;;22.48;13.82;;;;;;;13.23;100.00;101640.97;5042723;28;20039;-78
2021/07/03 01:51:38;;;;;;;20.33;12.82;;;;;;;13.21;100.00;101635.81;5056349;28;20693;-77
2021/07/03 01:54:03;;;;;;;25.88;13.90;;;;;;;13.11;100.00;101628.91;5037750;28;20509;-78
2021/07/03 01:56:29;;;;;;;21.80;13.98;;;;;;;13.13;100.00;101632.22;5068029;28;20111;-78
2021/07/03 01:58:56;;;;;;;26.38;14.38;;;;;;;13.12;100.00;101622.69;5036277;28;20103;-78
2021/07/03 02:01:33;;;;;;;19.38;12.70;;;;;;;13.10;100.00;101629.91;5028457;28;20043;-78
2021/07/03 02:03:59;;;;;;;21.75;14.27;;;;;;;13.07;100.00;101625.72;5055248;28;20040;-77
2021/07/03 02:06:40;;;;;;;22.38;14.63;;;;;;;13.05;100.00;101622.41;5041166;28;20036;-77
2021/07/03 02:09:07;;;;;;;22.05;15.02;;;;;;;12.99;100.00;101629.06;5068624;28;20513;-77
2021/07/03 02:11:33;;;;;;;21.30;14.35;;;;;;;12.95;100.00;101622.41;5082546;28;20032;-77
2021/07/03 02:14:10;;;;;;;24.40;15.13;;;;;;;12.92;100.00;101627.13;5060798;28;20039;-77
2021/07/03 02:16:45;;;;;;;19.23;14.00;;;;;;;12.84;100.00;101620.75;5069228;28;20039;-77
2021/07/03 02:19:10;;;;;;;19.73;14.27;;;;;;;12.85;100.00;101618.97;5043084;28;20036;-76
2021/07/03 02:21:38;;;;;;;18.38;12.82;;;;;;;12.81;100.00;101625.50;5052788;28;20032;-75
2021/07/03 02:24:06;;;;;;;20.42;14.02;;;;;;;12.79;100.00;101620.38;5055579;28;20035;-77
2021/07/03 02:26:31;;;;;;;21.80;13.85;;;;;;;12.76;100.00;101620.63;5052263;28;20028;-76
2021/07/03 02:28:57;;;;;;;20.25;14.18;;;;;;;12.67;100.00;101613.56;5054404;28;20040;-76
2021/07/03 02:31:28;;;;;;;20.90;14.45;;;;;;;12.68;100.00;101619.66;5072111;28;20449;-76
2021/07/03 02:33:58;;;;;;;22.13;14.48;;;;;;;12.64;100.00;101609.44;5039508;28;20040;-78
2021/07/03 02:36:24;;;;;;;21.73;13.93;;;;;;;12.57;100.00;101618.00;5065463;28;20032;-77
2021/07/03 02:38:51;;;;;;;23.23;14.50;;;;;;;12.55;100.00;101612.88;5052756;28;20574;-79
2021/07/03 02:41:23;;;;;;;19.92;13.40;;;;;;;12.58;100.00;101615.25;5029948;28;20033;-74
2021/07/03 02:43:49;;;;;;;20.80;15.00;;;;;;;12.61;100.00;101616.75;5055885;28;20079;-76
2021/07/03 02:46:15;;;;;;;23.42;15.40;;;;;;;12.57;100.00;101616.22;5063560;28;20113;-76
2021/07/03 02:48:42;;;;;;;23.25;14.27;;;;;;;12.57;100.00;101621.47;5052335;28;20068;-77
2021/07/03 02:51:08;;;;;;;20.23;13.98;;;;;;;12.56;100.00;101609.25;5055508;28;20036;-76
2021/07/03 02:53:33;;;;;;;21.70;14.85;;;;;;;12.53;100.00;101614.00;5053509;28;20617;-75
2021/07/03 02:56:01;;;;;;;25.40;15.18;;;;;;;12.51;100.00;101610.66;5046609;28;20044;-79
2021/07/03 02:58:27;;;;;;;20.98;14.18;;;;;;;12.51;100.00;101615.91;5075219;28;20763;-77
2021/07/03 03:00:55;;;;;;;17.38;13.40;;;;;;;12.52;100.00;101618.41;5075069;28;20058;-78
2021/07/03 03:03:22;;;;;;;21.85;15.05;;;;;;;12.53;100.00;101624.53;5038451;28;20044;-77
2021/07/03 03:05:48;;;;;;;20.45;15.15;;;;;;;12.51;100.00;101616.75;5056429;28;20033;-76
2021/07/03 03:08:14;;;;;;;20.23;15.13;;;;;;;12.52;100.00;101621.03;5071471;28;20048;-78
2021/07/03 03:10:41;;;;;;;28.90;14.68;;;;;;;12.49;100.00;101623.97;5044836;28;20033;-76
2021/07/03 03:13:06;;;;;;;22.45;15.45;;;;;;;12.49;100.00;101628.38;5057237;28;20039;-76
2021/07/03 03:15:32;;;;;;;21.83;14.60;;;;;;;12.41;100.00;101611.50;5059053;28;20029;-78
2021/07/03 03:18:02;;;;;;;27.48;14.82;;;;;;;12.47;100.00;101620.66;5052022;28;20040;-78
2021/07/03 03:20:28;;;;;;;25.35;15.50;;;;;;;12.43;100.00;101620.09;5057321;28;20478;-77
2021/07/03 03:22:54;;;;;;;27.30;15.45;;;;;;;12.44;100.00;101620.91;5060116;28;20131;-78
2021/07/03 03:25:19;;;;;;;21.85;14.98;;;;;;;12.42;100.00;101610.50;5036793;28;20032;-76
2021/07/03 03:27:46;;;;;;;22.13;14.80;;;;;;;12.46;100.00;101616.34;5072085;28;20052;-77
2021/07/03 03:30:14;;;;;;;23.67;14.27;;;;;;;12.53;100.00;101620.09;5060951;28;20064;-77
2021/07/03 03:32:43;;;;;;;21.38;15.25;;;;;;;12.55;100.00;101618.16;5040370;28;20056;-76
2021/07/03 03:35:10;;;;;;;33.33;16.60;;;;;;;12.56;100.00;101625.06;5057863;28;20474;-76
2021/07/03 03:37:37;;;;;;;23.02;14.93;;;;;;;12.57;100.00;101628.53;5060241;28;20040;-77
2021/07/03 03:40:05;;;;;;;24.95;14.45;;;;;;;12.61;100.00;101624.66;5078936;28;20035;-76
2021/07/03 03:42:32;;;;;;;23.73;14.25;;;;;;;12.68;100.00;101620.50;5075017;28;20110;-76
2021/07/03 03:44:58;;;;;;;19.85;14.77;;;;;;;12.68;100.00;101623.13;5061993;28;20170;-77
2021/07/03 03:47:24;;;;;;;19.42;14.88;;;;;;;12.69;100.00;101626.59;5057010;28;20127;-79
2021/07/03 03:49:50;;;;;;;20.08;14.50;;;;;;;12.65;100.00;101626.88;5046093;28;20067;-78
2021/07/03 03:52:18;;;;;;;21.25;14.20;;;;;;;12.61;100.00;101620.22;5039643;28;20033;-78
2021/07/03 03:54:46;;;;;;;22.40;14.88;;;;;;;12.70;100.00;101630.91;5073536;28;20716;-78
2021/07/03 03:57:21;;;;;;;18.45;15.15;;;;;;;12.70;100.00;101633.53;5043931;28;20047;-78
2021/07/03 03:59:49;;;;;;;20.63;15.70;;;;;;;12.71;100.00;101625.47;5060753;28;20036;-78
2021/07/03 04:02:15;;;;;;;19.95;14.98;;;;;;;12.79;100.00;101636.16;5071398;28;20033;-77
2021/07/03 04:04:41;;;;;;;19.65;15.65;;;;;;;12.75;100.00;101639.19;5038269;28;20490;-78
2021/07/03 04:07:07;;;;;;;21.00;15.15;;;;;;;12.76;100.00;101636.44;5045244;28;20032;-77
2021/07/03 04:09:33;;;;;;;21.90;16.10;;;;;;;12.76;100.00;101630.34;5065255;28;20041;-76
2021/07/03 04:11:59;;;;;;;22.45;16.85;;;;;;;12.78;100.00;101620.50;5062917;28;20039;-79
2021/07/03 04:14:24;;;;;;;23.90;16.65;;;;;;;12.89;100.00;101632.69;5039158;28;20036;-77
2021/07/03 04:16:50;;;;;;;27.38;18.50;;;;;;;12.87;100.00;101624.94;5042888;28;20060;-76
2021/07/03 04:19:15;;;;;;;29.70;19.55;;;;;;;12.97;100.00;101635.44;5057432;28;20034;-77
2021/07/03 04:21:41;;;;;;;24.55;17.63;;;;;;;12.95;100.00;101629.50;5052250;28;20494;-77
2021/07/03 04:24:06;;;;;;;25.30;17.70;;;;;;;13.00;100.00;101638.63;5038310;28;20078;-78
2021/07/03 04:26:32;;;;;;;22.83;16.60;;;;;;;13.05;100.00;101646.94;5035668;28;20037;-78
2021/07/03 04:28:57;;;;;;;23.27;16.85;;;;;;;13.11;100.00;101635.03;5076292;28;20633;-77
2021/07/03 04:31:23;;;;;;;25.15;18.33;;;;;;;13.17;100.00;101633.63;5037663;28;20033;-78
2021/07/03 04:33:48;;;;;;;27.73;19.27;;;;;;;13.26;100.00;101632.78;5051622;28;20028;-78
2021/07/03 04:36:14;;;;;;;31.25;20.77;;;;;;;13.28;100.00;101627.34;5038598;28;20040;-76
2021/07/03 04:38:40;;;;;;;24.95;19.48;;;;;;;13.42;100.00;101635.66;5081947;28;20071;-78
2021/07/03 04:41:08;;;;;;;29.33;21.13;;;;;;;13.54;100.00;101632.84;5050920;28;20035;-74
2021/07/03 04:43:33;;;;;;;27.40;19.10;;;;;;;13.65;100.00;101626.56;5053459;28;20040;-75
2021/07/03 04:46:00;;;;;;;33.72;23.17;;;;;;;13.82;100.00;101626.66;5076581;28;20039;-78
2021/07/03 04:48:26;;;;;;;30.95;20.30;;;;;;;13.83;100.00;101632.75;5053795;28;20096;-76
2021/07/03 04:50:51;;;;;;;30.45;19.92;;;;;;;13.91;100.00;101637.28;5060519;28;20123;-76
2021/07/03 04:53:17;;;;;;;26.50;19.75;;;;;;;14.00;100.00;101639.03;5038313;28;20036;-77
2021/07/03 04:55:44;;;;;;;29.40;20.90;;;;;;;14.05;100.00;101631.50;5059002;28;20461;-77
2021/07/03 04:58:09;;;;;;;23.77;19.73;;;;;;;14.14;100.00;101630.63;5054172;28;20072;-77
2021/07/03 05:00:35;;;;;;;29.55;20.52;;;;;;;14.32;100.00;101633.28;5057721;28;20025;-77
2021/07/03 05:03:01;;;;;;;26.45;18.13;;;;;;;14.40;100.00;101628.09;5070644;28;20394;-76
2021/07/03 05:05:26;;;;;;;25.73;19.00;;;;;;;14.58;100.00;101630.78;5051079;28;20032;-78
2021/07/03 05:07:52;;;;;;;27.70;18.48;;;;;;;14.69;100.00;101636.78;5058397;28;20126;-75
2021/07/03 05:10:18;;;;;;;25.98;17.20;;;;;;;14.72;100.00;101634.69;5050393;28;20425;-78
2021/07/03 05:12:44;;;;;;;26.05;16.67;;;;;;;14.83;100.00;101646.81;5052718;28;20039;-75
2021/07/03 05:15:10;;;;;;;25.17;17.30;;;;;;;14.84;100.00;101640.53;5069648;28;20505;-77
2021/07/03 05:17:35;;;;;;;25.45;16.25;;;;;;;14.94;100.00;101630.75;5045673;28;20092;-77
2021/07/03 05:20:01;;;;;;;23.70;17.40;;;;;;;15.02;100.00;101631.78;5050314;28;20040;-76
2021/07/03 05:22:26;;;;;;;24.80;16.98;;;;;;;15.09;100.00;101649.50;5036949;28;20035;-76
2021/07/03 05:24:52;;;;;;;23.45;17.38;;;;;;;15.07;100.00;101638.28;5060321;28;20123;-76
2021/07/03 05:27:17;;;;;;;21.75;15.60;;;;;;;15.00;100.00;101639.88;5054061;28;20020;-76
2021/07/03 05:29:43;;;;;;;22.10;16.40;;;;;;;15.02;100.00;101643.19;5068742;28;20036;-76
2021/07/03 05:32:08;;;;;;;18.33;15.27;;;;;;;15.05;100.00;101649.97;5054667;28;20040;-77
2021/07/03 05:34:35;;;;;;;23.05;16.48;;;;;;;15.00;100.00;101647.78;5035015;28;20660;-77
2021/07/03 05:37:00;;;;;;;23.00;16.10;;;;;;;15.05;100.00;101645.53;5053577;28;20037;-76
2021/07/03 05:39:26;;;;;;;17.38;14.20;;;;;;;15.24;100.00;101649.78;5051723;28;20496;-76
2021/07/03 05:41:51;;;;;;;25.10;15.23;;;;;;;15.37;99.81;101642.25;5033725;28;20557;-75
2021/07/03 05:44:17;;;;;;;21.00;14.77;;;;;;;15.57;100.00;101648.16;5066112;28;20044;-76
2021/07/03 05:46:43;;;;;;;15.25;13.32;;;;;;;15.63;100.00;101649.31;5051780;28;20029;-76
2021/07/03 05:49:08;;;;;;;21.17;14.40;;;;;;;15.77;97.43;101645.31;5047931;28;20033;-77
2021/07/03 05:51:36;;;;;;;20.63;13.02;;;;;;;16.00;96.94;101655.31;5046471;28;20032;-78
2021/07/03 05:54:01;;;;;;;19.30;13.98;;;;;;;16.29;95.36;101661.03;5048733;28;20089;-76
2021/07/03 05:56:27;;;;;;;19.65;13.65;;;;;;;16.65;93.02;101660.78;5051322;28;20025;-76
2021/07/03 05:58:54;;;;;;;16.15;12.85;;;;;;;16.61;91.29;101653.31;5035027;28;20033;-76
2021/07/03 06:01:20;;;;;;;16.45;12.85;;;;;;;16.53;92.34;101657.59;5032343;28;20032;-76
2021/07/03 06:03:46;;;;;;;21.92;14.57;;;;;;;16.42;93.20;101649.97;5030154;28;20044;-76
2021/07/03 06:06:11;;;;;;;17.25;12.25;;;;;;;16.50;93.05;101643.84;5052215;28;20033;-78
2021/07/03 06:08:37;;;;;;;15.70;11.45;;;;;;;16.40;92.58;101649.31;5029911;28;20388;-75
2021/07/03 06:11:02;;;;;;;15.82;11.57;;;;;;;16.32;94.18;101658.06;5068490;28;20028;-76
2021/07/03 06:13:28;;;;;;;16.30;11.25;;;;;;;16.17;93.82;101649.09;5066786;28;20033;-76
2021/07/03 06:15:54;;;;;;;16.60;11.15;;;;;;;15.99;95.78;101645.72;5075611;28;20039;-76
2021/07/03 06:18:19;;;;;;;16.00;11.05;;;;;;;15.87;96.77;101646.00;5051990;28;20049;-76
2021/07/03 06:20:45;;;;;;;16.60;12.15;;;;;;;15.85;97.17;101639.22;5040784;28;20051;-77
2021/07/03 06:23:10;;;;;;;17.13;12.68;;;;;;;15.98;96.79;101630.84;5083960;28;20128;-76
2021/07/03 06:25:36;;;;;;;16.90;10.63;;;;;;;16.21;95.29;101639.84;5048145;28;20028;-75
2021/07/03 06:28:02;;;;;;;18.65;9.38;;;;;;;16.38;91.35;101638.03;5038535;28;20502;-77
2021/07/03 06:30:28;;;;;;;12.77;9.30;;;;;;;16.57;93.27;101639.56;5067330;28;20025;-76
2021/07/03 06:32:53;;;;;;;13.48;8.30;;;;;;;16.67;89.66;101642.91;5058552;28;20040;-76
2021/07/03 06:35:18;;;;;;;14.13;8.00;;;;;;;16.73;88.56;101639.56;5055174;28;20379;-77
2021/07/03 06:37:44;;;;;;;11.88;7.88;;;;;;;16.73;88.25;101633.47;5039095;28;20150;-77
2021/07/03 06:40:10;;;;;;;12.32;7.63;;;;;;;16.78;90.27;101638.25;5054687;28;20115;-78
2021/07/03 06:42:35;;;;;;;12.63;8.15;;;;;;;16.87;87.98;101639.94;5040315;28;20505;-78
2021/07/03 06:45:01;;;;;;;12.52;7.38;;;;;;;17.16;88.07;101630.63;5072095;28;20028;-78
2021/07/03 06:47:26;;;;;;;10.98;7.10;;;;;;;17.55;88.50;101635.19;5054489;28;20445;-78
2021/07/03 06:49:52;;;;;;;13.52;7.15;;;;;;;17.64;83.96;101631.50;5037884;28;20662;-78
2021/07/03 06:52:17;;;;;;;13.00;6.47;;;;;;;17.43;85.12;101635.56;5043302;28;20032;-77
2021/07/03 06:54:43;;;;;;;10.80;6.05;;;;;;;17.32;86.77;101628.78;5061354;28;20028;-77
2021/07/03 06:57:09;;;;;;;8.00;6.57;;;;;;;17.16;86.86;101646.53;5089953;28;20090;-77
2021/07/03 06:59:35;;;;;;;9.07;5.70;;;;;;;17.12;87.84;101641.59;5060152;28;20033;-79
2021/07/03 07:02:02;;;;;;;11.68;6.68;;;;;;;17.07;88.52;101632.47;5060719;28;20134;-78
2021/07/03 07:04:27;;;;;;;11.00;5.78;;;;;;;17.02;86.49;101640.91;5038961;28;20042;-77
2021/07/03 07:06:55;;;;;;;10.68;6.32;;;;;;;17.05;89.83;101631.81;5067559;28;20111;-77
2021/07/03 07:09:22;;;;;;;10.13;5.68;;;;;;;16.96;86.92;101638.13;5085796;28;20025;-76
2021/07/03 07:11:47;;;;;;;7.60;5.13;;;;;;;17.01;86.40;101641.94;5054780;28;20090;-80
2021/07/03 07:14:13;;;;;;;7.90;5.10;;;;;;;17.03;87.12;101628.53;5041029;28;20036;-77
2021/07/03 07:16:39;;;;;;;8.75;4.97;;;;;;;17.21;86.03;101633.59;5044708;28;20410;-79
2021/07/03 07:19:04;;;;;;;11.27;4.90;;;;;;;17.22;84.05;101632.63;5056683;28;20036;-78
2021/07/03 07:21:30;;;;;;;8.75;5.03;;;;;;;17.48;82.45;101635.06;5038073;28;20132;-78
2021/07/03 07:23:56;;;;;;;7.65;4.55;;;;;;;17.96;79.93;101625.25;5063474;28;20036;-78
2021/07/03 07:26:21;;;;;;;5.82;4.20;;;;;;;18.33;78.86;101630.84;5048378;28;20078;-78
2021/07/03 07:28:49;;;;;;;4.65;3.88;;;;;;;18.36;78.56;101633.16;5040342;28;20040;-76
2021/07/03 07:31:15;;;;;;;9.18;4.75;;;;;;;18.16;78.18;101628.31;5054252;28;20031;-76
2021/07/03 07:33:41;;;;;;;8.25;4.72;;;;;;;18.23;78.73;101641.69;5060242;28;20056;-76
2021/07/03 07:36:06;;;;;;;7.88;4.30;;;;;;;18.07;77.92;101624.06;5075172;28;20028;-76
2021/07/03 07:38:32;;;;;;;7.15;4.30;;;;;;;17.88;79.16;101642.06;5073852;28;20028;-77
2021/07/03 07:40:58;;;;;;;5.45;3.67;;;;;;;17.77;80.45;101636.28;5042449;28;20070;-76
2021/07/03 07:43:23;;;;;;;8.52;4.00;;;;;;;17.40;79.91;101643.00;5054292;28;20375;-78
2021/07/03 07:45:49;;;;;;;8.52;4.60;;;;;;;17.36;83.01;101645.16;5052592;28;20489;-78
2021/07/03 07:48:14;;;;;;;8.98;4.07;;;;;;;17.42;82.25;101643.66;5067665;28;20039;-77
2021/07/03 07:50:40;;;;;;;8.38;4.05;;;;;;;17.65;80.20;101643.75;5016856;28;20044;-78
2021/07/03 07:53:06;;;;;;;7.07;4.43;;;;;;;17.71;81.69;101632.47;5022733;28;20509;-76
2021/07/03 07:55:31;;;;;;;7.72;4.20;;;;;;;17.75;79.04;101633.78;5056279;28;20513;-77
2021/07/03 07:57:57;;;;;;;5.05;3.85;;;;;;;17.81;81.20;101637.59;5035949;28;20028;-77
2021/07/03 08:00:22;;;;;;;7.50;3.90;;;;;;;17.94;77.93;101637.88;5070327;28;20597;-77
2021/07/03 08:02:51;;;;;;;5.35;3.50;;;;;;;17.97;76.64;101642.00;5052513;28;20032;-77
2021/07/03 08:05:18;;;;;;;7.80;3.90;;;;;;;18.18;78.63;101633.47;5050780;28;20783;-77
2021/07/03 08:07:44;;;;;;;8.30;3.90;;;;;;;18.53;79.38;101628.56;5069903;28;20036;-78
2021/07/03 08:10:11;;;;;;;7.13;3.50;;;;;;;18.72;78.21;101629.91;5047546;28;20157;-79
2021/07/03 08:12:38;;;;;;;5.57;4.03;;;;;;;18.82;74.17;101633.19;5060375;28;20036;-76
2021/07/03 08:15:05;;;;;;;6.85;3.75;;;;;;;18.75;75.35;101640.19;5071683;28;20094;-77
2021/07/03 08:17:31;;;;;;;5.07;3.58;;;;;;;18.60;79.24;101635.63;5038798;28;20032;-79
2021/07/03 08:19:56;;;;;;;7.50;3.92;;;;;;;18.44;75.54;101633.09;5036668;28;20035;-76
2021/07/03 08:22:22;;;;;;;6.57;3.63;;;;;;;18.22;76.99;101640.06;5054854;28;20567;-75
2021/07/03 08:24:48;;;;;;;5.88;3.78;;;;;;;18.15;74.86;101631.97;5079561;28;20855;-76
2021/07/03 08:27:13;;;;;;;33.08;10.75;;;;;;;18.12;77.05;101628.81;5031662;28;20035;-77
2021/07/03 08:29:39;;;;;;;8.23;4.70;;;;;;;18.07;79.73;101630.19;5036201;28;20082;-77
2021/07/03 08:32:04;;;;;;;4.03;3.63;;;;;;;18.26;82.33;101628.91;5053016;28;20028;-75
2021/07/03 08:34:30;;;;;;;5.57;4.18;;;;;;;18.78;81.68;101624.72;5074522;28;20082;-80
2021/07/03 08:36:55;;;;;;;6.30;3.90;;;;;;;19.40;74.04;101617.47;5052486;28;20031;-77
2021/07/03 08:39:21;;;;;;;4.57;3.40;;;;;;;19.70;71.76;101612.13;5059077;28;20486;-78
2021/07/03 08:41:46;;;;;;;8.13;4.05;;;;;;;19.77;71.47;101613.91;5050782;28;20543;-78
2021/07/03 08:44:14;;;;;;;8.50;3.60;;;;;;;19.64;73.47;101627.00;5043025;28;20027;-77
2021/07/03 08:46:43;;;;;;;6.75;3.65;;;;;;;19.45;72.60;101625.75;5053800;28;20094;-79
2021/07/03 08:49:09;;;;;;;6.68;3.30;;;;;;;19.23;73.46;101628.31;5070777;28;20036;-78
2021/07/03 08:51:40;;;;;;;6.85;3.40;;;;;;;19.11;73.51;101620.97;5053041;28;20547;-78
2021/07/03 08:54:05;;;;;;;6.22;3.38;;;;;;;19.13;72.18;101617.09;5034816;28;20123;-80
2021/07/03 08:56:31;;;;;;;5.82;2.83;;;;;;;19.46;71.36;101622.09;5037521;28;20111;-77
2021/07/03 08:58:57;;;;;;;4.55;2.60;;;;;;;19.91;64.96;101603.41;5038261;28;20486;-78
2021/07/03 09:01:22;;;;;;;3.45;2.92;;;;;;;20.33;65.72;101618.63;5044934;28;20391;-79
2021/07/03 09:03:53;;;;;;;4.07;2.63;;;;;;;20.46;66.52;101619.78;5039105;28;20032;-79
2021/07/03 09:06:29;;;;;;;5.10;2.72;;;;;;;20.65;63.85;101619.16;5081777;28;20028;-78
2021/07/03 09:08:55;;;;;;;4.40;2.85;;;;;;;20.85;62.10;101614.00;5064418;28;20036;-77
2021/07/03 09:11:21;;;;;;;3.83;2.47;;;;;;;21.03;63.51;101618.00;5034399;28;20088;-77
2021/07/03 09:13:57;;;;;;;4.80;2.65;;;;;;;20.56;61.57;101614.94;5035846;28;20064;-77
2021/07/03 09:16:31;;;;;;;21.30;6.32;;;;;;;20.24;65.64;101617.09;5068144;28;20024;-79
2021/07/03 09:18:57;;;;;;;4.43;2.70;;;;;;;20.59;64.11;101611.91;5050978;28;20490;-78
2021/07/03 09:21:22;;;;;;;4.15;2.67;;;;;;;20.86;63.92;101609.47;5070535;28;20029;-78
2021/07/03 09:23:48;;;;;;;6.30;3.00;;;;;;;21.04;66.00;101606.31;5061517;28;20028;-77
2021/07/03 09:26:14;;;;;;;3.20;2.72;;;;;;;20.75;64.38;101600.16;5050551;28;20035;-78
2021/07/03 09:28:41;;;;;;;6.38;3.55;;;;;;;20.46;65.76;101609.13;5068606;28;20040;-77
2021/07/03 09:31:10;;;;;;;5.18;3.28;;;;;;;19.98;67.82;101596.31;5033436;28;20032;-79
2021/07/03 09:33:38;;;;;;;5.57;2.72;;;;;;;20.47;66.10;101600.09;5047766;28;20060;-77
2021/07/03 09:36:05;;;;;;;7.28;2.88;;;;;;;20.72;64.38;101601.38;5061394;28;20063;-79
2021/07/03 09:38:39;;;;;;;16.27;4.97;;;;;;;21.32;63.08;101604.47;5051006;28;20033;-77
2021/07/03 09:41:06;;;;;;;44.83;10.98;;;;;;;21.55;62.13;101600.72;5062914;28;20130;-80
2021/07/03 09:43:32;;;;;;;5.45;3.10;;;;;;;21.92;59.76;101591.38;5031919;28;20048;-77
2021/07/03 09:45:57;;;;;;;3.13;2.40;;;;;;;21.49;61.77;101601.47;5051337;28;20021;-78
2021/07/03 09:48:49;;;;;;;5.88;3.00;;;;;;;20.73;61.48;101602.19;5052442;28;20048;-77
2021/07/03 09:51:15;;;;;;;4.40;2.90;;;;;;;20.48;66.30;101604.44;5051547;28;20086;-76
2021/07/03 09:53:41;;;;;;;4.20;2.78;;;;;;;20.37;68.40;101606.56;5035359;28;20402;-75
2021/07/03 09:56:07;;;;;;;6.32;3.75;;;;;;;20.35;64.36;101603.28;5035208;28;20101;-80
2021/07/03 09:58:33;;;;;;;3.38;3.03;;;;;;;20.26;65.90;101600.94;5035378;28;20025;-77
2021/07/03 10:00:59;;;;;;;3.80;2.90;;;;;;;20.02;72.43;101598.44;5038328;28;20050;-75
2021/07/03 10:03:25;;;;;;;4.68;2.90;;;;;;;20.01;67.05;101583.47;5041711;28;20036;-78
2021/07/03 10:05:54;;;;;;;7.18;3.00;;;;;;;19.99;72.34;101590.00;5055715;28;20636;-78
2021/07/03 10:08:22;;;;;;;4.35;2.65;;;;;;;19.81;68.31;101593.06;5071538;28;20039;-77
2021/07/03 10:10:55;;;;;;;6.90;3.40;;;;;;;19.88;65.82;101585.97;5058292;28;20367;-77
2021/07/03 10:13:23;;;;;;;3.33;2.72;;;;;;;20.64;69.28;101587.34;5052601;28;20502;-79
2021/07/03 10:15:49;;;;;;;4.90;3.10;;;;;;;21.33;62.62;101595.41;5066213;28;20563;-76
2021/07/03 10:18:20;;;;;;;3.60;2.55;;;;;;;21.90;63.35;101590.75;5077743;28;20060;-79
2021/07/03 10:20:45;;;;;;;3.05;2.60;;;;;;;22.20;58.39;101597.59;5052656;28;20067;-80
2021/07/03 10:23:12;;;;;;;3.88;2.58;;;;;;;21.76;61.74;101586.41;5032127;28;20041;-80
2021/07/03 10:25:43;;;;;;;3.97;2.40;;;;;;;21.26;61.47;101589.22;5051044;28;20052;-78
2021/07/03 10:28:12;;;;;;;3.88;2.63;;;;;;;20.90;62.90;101600.06;5051735;28;20485;-80
2021/07/03 10:30:40;;;;;;;3.88;2.63;;;;;;;21.35;64.58;101593.38;5048925;28;20035;-77
2021/07/03 10:33:21;;;;;;;3.35;2.70;;;;;;;21.28;62.06;101599.69;5038335;28;20063;-76
2021/07/03 10:35:51;;;;;;;2.78;2.58;;;;;;;20.85;62.51;101598.00;5042381;28;20119;-78
2021/07/03 10:38:17;;;;;;;4.10;2.28;;;;;;;21.40;61.42;101592.78;5068671;28;20068;-79
2021/07/03 10:40:43;;;;;;;2.55;2.35;;;;;;;21.57;63.92;101587.97;5060882;28;20048;-79
2021/07/03 10:43:12;;;;;;;4.07;2.53;;;;;;;22.00;58.78;101585.03;5051407;28;20110;-78
2021/07/03 10:45:46;;;;;;;4.80;2.33;;;;;;;22.40;58.88;101584.31;5036210;28;20039;-76
2021/07/03 10:48:20;;;;;;;2.72;2.25;;;;;;;22.91;54.36;101583.66;5035648;28;20078;-77
2021/07/03 10:50:48;;;;;;;2.85;2.33;;;;;;;23.19;56.34;101574.56;5078281;28;20040;-77
2021/07/03 10:53:29;;;;;;;3.97;2.40;;;;;;;23.37;57.16;101579.25;5057535;28;20085;-80
2021/07/03 10:56:08;;;;;;;3.88;2.55;;;;;;;22.71;58.52;101572.97;5052695;28;20120;-79
2021/07/03 10:58:37;;;;;;;4.75;2.50;;;;;;;22.00;58.01;101574.34;5070867;28;20549;-77
2021/07/03 11:01:07;;;;;;;2.63;2.42;;;;;;;21.98;58.61;101579.06;5069844;28;20040;-77
2021/07/03 11:03:49;;;;;;;4.32;2.60;;;;;;;22.22;57.78;101579.53;5064407;28;20058;-77
2021/07/03 11:06:17;;;;;;;9.32;2.63;;;;;;;22.89;54.85;101575.03;5054028;28;20047;-78
2021/07/03 11:08:44;;;;;;;3.67;2.33;;;;;;;23.10;59.11;101576.66;5053879;28;20059;-78
2021/07/03 11:11:11;;;;;;;5.00;2.65;;;;;;;23.43;53.17;101575.72;5053897;28;20045;-79